createdAt,value
2018-02-19T00:00:21.723Z,17.40
2018-02-19T00:00:52.335Z,16.90
2018-02-19T00:01:22.993Z,17.50
2018-02-19T00:01:53.620Z,17.70
2018-02-19T00:02:24.236Z,18.20
2018-02-19T00:02:54.859Z,16.90
2018-02-19T00:03:25.513Z,16.80
2018-02-19T00:03:56.180Z,16.80
2018-02-19T00:04:26.799Z,17.60
2018-02-19T00:04:57.424Z,17.10
2018-02-19T00:05:28.055Z,18.30
2018-02-19T00:05:58.685Z,17.10
2018-02-19T00:06:29.313Z,17.30
2018-02-19T00:06:59.931Z,17.20
2018-02-19T00:07:30.569Z,17.40
2018-02-19T00:08:31.482Z,17.30
2018-02-19T00:09:02.126Z,16.60
2018-02-19T00:10:03.032Z,17.60
2018-02-19T00:10:33.658Z,16.50
2018-02-19T00:11:04.534Z,17.70
2018-02-19T00:11:35.156Z,17.00
2018-02-19T00:12:05.794Z,16.70
2018-02-19T00:12:36.418Z,16.80
2018-02-19T00:13:07.034Z,17.10
2018-02-19T00:13:37.683Z,17.40
2018-02-19T00:14:08.322Z,16.70
2018-02-19T00:15:09.215Z,17.20
2018-02-19T00:15:39.844Z,16.40
2018-02-19T00:16:10.553Z,18.20
2018-02-19T00:16:41.202Z,17.90
2018-02-19T00:17:42.149Z,17.90
2018-02-19T00:18:43.050Z,17.10
2018-02-19T00:19:13.659Z,18.20
2018-02-19T00:19:44.289Z,18.50
2018-02-19T00:20:14.976Z,18.70
2018-02-19T00:20:45.600Z,19.40
2018-02-19T00:21:16.219Z,17.20
2018-02-19T00:21:46.848Z,17.70
2018-02-19T00:22:17.466Z,18.40
2018-02-19T00:22:48.079Z,18.30
2018-02-19T00:23:18.875Z,18.10
2018-02-19T00:24:19.778Z,19.90
2018-02-19T00:24:50.397Z,18.60
2018-02-19T00:25:21.022Z,18.50
2018-02-19T00:25:51.651Z,18.60
2018-02-19T00:26:22.353Z,17.80
2018-02-19T00:26:52.996Z,18.20
2018-02-19T00:27:23.644Z,18.20
2018-02-19T00:28:24.541Z,18.60
2018-02-19T00:28:55.167Z,18.60
2018-02-19T00:29:25.832Z,18.70
2018-02-19T00:29:56.456Z,18.70
2018-02-19T00:30:27.075Z,18.60
2018-02-19T00:30:57.691Z,19.40
2018-02-19T00:31:28.314Z,18.00
2018-02-19T00:31:58.955Z,19.80
2018-02-19T00:32:29.570Z,19.80
2018-02-19T00:33:00.183Z,19.50
2018-02-19T00:33:31.350Z,20.20
2018-02-19T00:34:01.986Z,19.80
2018-02-19T00:34:33.425Z,21.10
2018-02-19T00:35:04.103Z,21.10
2018-02-19T00:35:34.901Z,19.20
2018-02-19T00:36:05.564Z,20.60
2018-02-19T00:36:36.193Z,21.30
2018-02-19T00:37:06.828Z,21.40
2018-02-19T00:37:37.466Z,21.80
2018-02-19T00:38:08.717Z,22.30
2018-02-19T00:39:09.610Z,22.70
2018-02-19T00:39:40.506Z,22.80
2018-02-19T00:40:11.135Z,23.10
2018-02-19T00:40:42.695Z,22.30
2018-02-19T00:41:13.311Z,22.40
2018-02-19T00:41:43.945Z,22.00
2018-02-19T00:42:14.558Z,22.30
2018-02-19T00:42:45.193Z,23.40
2018-02-19T00:43:15.815Z,23.80
2018-02-19T00:43:46.454Z,23.60
2018-02-19T00:44:17.096Z,23.40
2018-02-19T00:44:47.713Z,23.10
2018-02-19T00:45:18.338Z,23.60
2018-02-19T00:45:49.711Z,24.00
2018-02-19T00:46:20.322Z,24.20
2018-02-19T00:46:50.940Z,24.00
2018-02-19T00:47:21.956Z,23.90
2018-02-19T00:47:52.612Z,24.30
2018-02-19T00:48:24.065Z,23.20
2018-02-19T00:48:54.687Z,23.20
2018-02-19T00:49:25.316Z,23.00
2018-02-19T00:49:55.942Z,23.50
2018-02-19T00:50:26.546Z,24.50
2018-02-19T00:50:57.159Z,24.20
2018-02-19T00:51:27.803Z,23.20
2018-02-19T00:51:58.437Z,24.10
2018-02-19T00:52:59.333Z,24.70
2018-02-19T00:53:29.968Z,23.80
2018-02-19T00:54:00.584Z,24.10
2018-02-19T00:54:31.238Z,23.80
2018-02-19T00:55:32.121Z,23.60
2018-02-19T00:56:02.750Z,23.40
2018-02-19T00:56:33.371Z,24.20
2018-02-19T00:57:04.006Z,23.90
2018-02-19T00:57:34.666Z,24.60
2018-02-19T00:58:05.375Z,25.00
2018-02-19T00:59:06.272Z,23.20
2018-02-19T00:59:36.960Z,22.90
2018-02-19T01:00:07.607Z,21.90
2018-02-19T01:00:38.231Z,21.10
2018-02-19T01:01:08.846Z,22.40
2018-02-19T01:01:39.477Z,23.30
2018-02-19T01:02:10.366Z,23.70
2018-02-19T01:02:40.985Z,23.40
2018-02-19T01:03:11.616Z,21.80
2018-02-19T01:03:42.244Z,22.00
2018-02-19T01:04:12.849Z,22.70
2018-02-19T01:04:43.475Z,22.30
2018-02-19T01:05:14.103Z,21.60
2018-02-19T01:05:44.746Z,21.30
2018-02-19T01:06:15.381Z,20.90
2018-02-19T01:06:46.008Z,21.90
2018-02-19T01:07:16.640Z,21.80
2018-02-19T01:08:18.317Z,21.20
2018-02-19T01:08:48.989Z,21.20
2018-02-19T01:09:19.618Z,21.00
2018-02-19T01:09:50.257Z,21.10
2018-02-19T01:10:51.144Z,20.70
2018-02-19T01:11:21.749Z,20.60
2018-02-19T01:11:52.399Z,21.20
2018-02-19T01:12:23.019Z,21.20
2018-02-19T01:12:53.642Z,20.80
2018-02-19T01:13:24.263Z,21.50
2018-02-19T01:13:54.883Z,21.00
2018-02-19T01:14:25.529Z,22.00
2018-02-19T01:14:56.173Z,21.30
2018-02-19T01:15:26.873Z,20.70
2018-02-19T01:15:58.034Z,21.60
2018-02-19T01:16:28.668Z,21.60
2018-02-19T01:16:59.285Z,20.90
2018-02-19T01:17:29.898Z,21.00
2018-02-19T01:18:00.524Z,22.10
2018-02-19T01:18:31.134Z,22.00
2018-02-19T01:19:01.760Z,21.30
2018-02-19T01:19:32.398Z,20.80
2018-02-19T01:20:03.014Z,22.60
2018-02-19T01:20:33.635Z,20.60
2018-02-19T01:21:04.486Z,21.30
2018-02-19T01:21:35.161Z,21.40
2018-02-19T01:22:36.054Z,20.00
2018-02-19T01:23:06.697Z,21.40
2018-02-19T01:23:37.322Z,21.50
2018-02-19T01:24:38.234Z,22.30
2018-02-19T01:25:08.859Z,22.60
2018-02-19T01:25:39.504Z,22.00
2018-02-19T01:26:40.399Z,22.50
2018-02-19T01:27:11.037Z,21.80
2018-02-19T01:27:41.661Z,22.10
2018-02-19T01:28:12.282Z,22.20
2018-02-19T01:28:43.319Z,22.10
2018-02-19T01:29:44.240Z,21.90
2018-02-19T01:30:14.862Z,21.00
2018-02-19T01:30:45.479Z,22.20
2018-02-19T01:31:16.107Z,20.60
2018-02-19T01:31:46.746Z,20.20
2018-02-19T01:32:47.641Z,20.20
2018-02-19T01:33:18.276Z,20.50
2018-02-19T01:34:19.193Z,20.10
2018-02-19T01:34:49.841Z,21.50
2018-02-19T01:35:50.755Z,20.70
2018-02-19T01:36:21.374Z,20.60
2018-02-19T01:36:51.989Z,20.90
2018-02-19T01:37:22.609Z,20.30
2018-02-19T01:37:53.253Z,21.00
2018-02-19T01:38:23.887Z,20.80
2018-02-19T01:39:24.795Z,21.80
2018-02-19T01:39:55.441Z,22.00
2018-02-19T01:40:26.067Z,21.70
2018-02-19T01:40:57.690Z,21.20
2018-02-19T01:41:28.762Z,21.20
2018-02-19T01:41:59.827Z,20.80
2018-02-19T01:42:30.459Z,20.00
2018-02-19T01:43:01.069Z,19.80
2018-02-19T01:43:31.687Z,20.30
2018-02-19T01:44:02.366Z,19.60
2018-02-19T01:44:33.153Z,20.40
2018-02-19T01:45:03.772Z,20.20
2018-02-19T01:45:34.386Z,19.80
2018-02-19T01:46:05.021Z,20.00
2018-02-19T01:46:36.315Z,20.20
2018-02-19T01:47:06.945Z,21.00
2018-02-19T01:47:37.564Z,20.90
2018-02-19T01:48:08.187Z,20.90
2018-02-19T01:48:39.543Z,20.60
2018-02-19T01:49:10.159Z,20.60
2018-02-19T01:49:41.702Z,19.90
2018-02-19T01:50:12.333Z,19.90
2018-02-19T01:50:42.987Z,20.30
2018-02-19T01:51:43.891Z,20.20
2018-02-19T01:52:14.507Z,20.40
2018-02-19T01:52:45.772Z,21.00
2018-02-19T01:53:16.431Z,18.90
2018-02-19T01:53:47.060Z,19.40
2018-02-19T01:54:17.695Z,19.80
2018-02-19T01:54:48.330Z,21.10
2018-02-19T01:55:18.948Z,21.30
2018-02-19T01:55:49.570Z,20.50
2018-02-19T01:56:20.195Z,21.00
2018-02-19T01:56:50.809Z,22.10
2018-02-19T01:57:21.437Z,21.80
2018-02-19T01:57:52.058Z,21.80
2018-02-19T01:58:22.697Z,21.80
2018-02-19T01:59:23.588Z,21.50
2018-02-19T01:59:54.202Z,22.00
2018-02-19T02:00:24.887Z,21.00
2018-02-19T02:00:55.904Z,21.70
2018-02-19T02:01:26.535Z,21.40
2018-02-19T02:01:57.969Z,21.60
2018-02-19T02:02:28.600Z,21.60
2018-02-19T02:02:59.243Z,20.90
2018-02-19T02:03:29.883Z,21.10
2018-02-19T02:04:00.512Z,21.10
2018-02-19T02:04:31.136Z,20.40
2018-02-19T02:05:01.828Z,20.60
2018-02-19T02:05:32.611Z,21.50
2018-02-19T02:06:33.514Z,20.90
2018-02-19T02:07:04.132Z,20.50
2018-02-19T02:07:34.767Z,20.60
2018-02-19T02:08:05.396Z,21.80
2018-02-19T02:08:36.030Z,21.30
2018-02-19T02:09:36.921Z,20.70
2018-02-19T02:10:07.560Z,22.10
2018-02-19T02:10:38.201Z,22.20
2018-02-19T02:11:39.090Z,21.50
2018-02-19T02:12:09.718Z,21.40
2018-02-19T02:12:40.353Z,22.80
2018-02-19T02:13:11.060Z,22.10
2018-02-19T02:13:41.764Z,22.40
2018-02-19T02:14:13.140Z,22.40
2018-02-19T02:14:43.767Z,21.10
2018-02-19T02:15:14.391Z,23.30
2018-02-19T02:15:45.015Z,24.10
2018-02-19T02:16:46.516Z,22.10
2018-02-19T02:17:17.137Z,21.40
2018-02-19T02:17:47.768Z,22.30
2018-02-19T02:18:18.382Z,21.70
2018-02-19T02:18:49.647Z,19.70
2018-02-19T02:19:20.292Z,20.90
2018-02-19T02:20:21.206Z,21.40
2018-02-19T02:21:22.138Z,22.80
2018-02-19T02:21:52.757Z,22.90
2018-02-19T02:22:23.385Z,21.90
2018-02-19T02:23:24.289Z,22.60
2018-02-19T02:23:54.917Z,22.20
2018-02-19T02:24:25.544Z,23.30
2018-02-19T02:24:56.170Z,22.30
2018-02-19T02:25:26.790Z,22.20
2018-02-19T02:25:57.418Z,21.40
2018-02-19T02:26:28.059Z,22.50
2018-02-19T02:26:58.686Z,22.40
2018-02-19T02:27:29.303Z,22.50
2018-02-19T02:28:30.212Z,22.70
2018-02-19T02:29:31.119Z,21.50
2018-02-19T02:30:01.744Z,22.80
2018-02-19T02:30:32.365Z,22.30
2018-02-19T02:31:02.995Z,22.60
2018-02-19T02:31:33.626Z,21.50
2018-02-19T02:32:04.250Z,22.60
2018-02-19T02:32:34.878Z,21.10
2018-02-19T02:33:05.546Z,21.90
2018-02-19T02:33:36.204Z,21.10
2018-02-19T02:34:06.824Z,21.60
2018-02-19T02:34:37.459Z,20.90
2018-02-19T02:35:08.098Z,21.30
2018-02-19T02:36:08.999Z,22.30
2018-02-19T02:36:39.625Z,23.10
2018-02-19T02:37:10.260Z,21.60
2018-02-19T02:38:11.162Z,22.80
2018-02-19T02:38:41.783Z,20.90
2018-02-19T02:39:12.423Z,20.80
2018-02-19T02:39:43.041Z,20.40
2018-02-19T02:40:13.683Z,20.60
2018-02-19T02:41:14.581Z,20.80
2018-02-19T02:41:45.234Z,20.40
2018-02-19T02:42:46.127Z,20.50
2018-02-19T02:43:16.768Z,20.80
2018-02-19T02:43:47.413Z,21.30
2018-02-19T02:44:48.304Z,21.40
2018-02-19T02:45:18.953Z,22.20
2018-02-19T02:45:49.573Z,21.60
2018-02-19T02:46:20.215Z,20.40
2018-02-19T02:47:21.109Z,19.40
2018-02-19T02:47:51.741Z,19.60
2018-02-19T02:48:22.425Z,19.80
2018-02-19T02:48:53.046Z,19.90
2018-02-19T02:49:23.665Z,20.30
2018-02-19T02:49:54.289Z,19.40
2018-02-19T02:50:24.900Z,20.60
2018-02-19T02:50:55.538Z,18.90
2018-02-19T02:51:26.170Z,21.40
2018-02-19T02:51:56.810Z,19.60
2018-02-19T02:52:27.441Z,20.10
2018-02-19T02:53:28.348Z,20.10
2018-02-19T02:53:58.982Z,20.20
2018-02-19T02:54:29.624Z,19.60
2018-02-19T02:55:30.512Z,19.80
2018-02-19T02:56:01.130Z,20.70
2018-02-19T02:56:31.765Z,20.90
2018-02-19T02:57:02.383Z,20.10
2018-02-19T02:57:33.022Z,20.40
2018-02-19T02:58:03.641Z,20.50
2018-02-19T02:58:34.258Z,19.30
2018-02-19T02:59:04.891Z,21.00
2018-02-19T02:59:35.515Z,20.70
2018-02-19T03:00:36.400Z,20.70
2018-02-19T03:01:07.001Z,20.30
2018-02-19T03:01:37.631Z,19.80
2018-02-19T03:02:08.263Z,19.40
2018-02-19T03:02:39.519Z,20.10
2018-02-19T03:03:10.137Z,20.00
2018-02-19T03:03:40.785Z,20.30
2018-02-19T03:04:41.685Z,19.90
2018-02-19T03:05:12.342Z,20.50
2018-02-19T03:06:13.246Z,20.80
2018-02-19T03:06:43.876Z,21.60
2018-02-19T03:07:14.518Z,21.00
2018-02-19T03:08:15.436Z,20.70
2018-02-19T03:08:46.142Z,21.10
2018-02-19T03:09:17.764Z,21.10
2018-02-19T03:09:48.389Z,21.10
2018-02-19T03:10:18.999Z,21.80
2018-02-19T03:10:49.611Z,19.90
2018-02-19T03:11:20.242Z,21.50
2018-02-19T03:11:50.862Z,20.20
2018-02-19T03:12:21.476Z,21.30
2018-02-19T03:12:52.087Z,22.50
2018-02-19T03:13:23.619Z,21.40
2018-02-19T03:13:54.245Z,22.50
2018-02-19T03:14:24.858Z,21.80
2018-02-19T03:15:25.759Z,21.70
2018-02-19T03:15:56.370Z,22.70
2018-02-19T03:16:26.990Z,22.90
2018-02-19T03:16:57.625Z,22.00
2018-02-19T03:17:28.252Z,21.90
2018-02-19T03:17:58.884Z,22.10
2018-02-19T03:18:59.782Z,20.70
2018-02-19T03:19:30.399Z,21.90
2018-02-19T03:20:01.028Z,20.70
2018-02-19T03:20:31.682Z,21.30
2018-02-19T03:21:32.708Z,21.20
2018-02-19T03:22:03.334Z,21.10
2018-02-19T03:23:04.226Z,20.40
2018-02-19T03:23:34.863Z,21.50
2018-02-19T08:27:28.397Z,2.90
2018-02-19T08:27:58.976Z,4.00
2018-02-19T08:28:29.562Z,3.50
2018-02-19T08:29:30.423Z,3.80
2018-02-19T08:30:01.023Z,3.70
2018-02-19T08:30:31.609Z,3.40
2018-02-19T08:31:02.227Z,3.30
2018-02-19T08:31:32.828Z,3.30
2018-02-19T08:32:03.410Z,3.50
2018-02-19T08:32:33.980Z,3.40
2018-02-19T08:33:04.567Z,3.10
2018-02-19T08:33:35.173Z,2.90
2018-02-19T08:34:05.757Z,3.20
2018-02-19T08:35:06.606Z,3.30
2018-02-19T08:35:37.176Z,3.40
2018-02-19T08:36:07.742Z,3.30
2018-02-19T08:36:38.337Z,2.90
2018-02-19T08:37:39.196Z,3.00
2018-02-19T08:38:09.792Z,3.40
2018-02-19T08:38:40.384Z,3.40
2018-02-19T08:39:10.969Z,3.00
2018-02-19T08:39:41.548Z,3.00
2018-02-19T08:40:12.123Z,3.10
2018-02-19T08:40:42.771Z,3.00
2018-02-19T08:41:43.612Z,3.00
2018-02-19T08:42:14.206Z,2.90
2018-02-19T08:42:59.375Z,3.00
2018-02-19T08:43:28.452Z,3.00
2018-02-19T08:43:59.056Z,3.30
2018-02-19T08:45:11.443Z,3.10
2018-02-19T08:46:12.059Z,3.20
2018-02-19T08:47:12.685Z,3.00
2018-02-19T08:48:13.261Z,2.80
2018-02-19T08:49:13.841Z,3.20
2018-02-19T08:50:14.427Z,3.30
2018-02-19T08:51:15.017Z,3.70
2018-02-19T08:52:15.630Z,3.40
2018-02-19T08:53:16.195Z,3.40
2018-02-19T08:54:16.772Z,3.30
2018-02-19T08:55:17.344Z,3.10
2018-02-19T08:56:17.927Z,3.20
2018-02-19T08:57:18.505Z,2.80
2018-02-19T08:58:19.082Z,3.10
2018-02-19T08:59:19.667Z,3.20
2018-02-19T09:00:20.244Z,3.40
2018-02-19T09:01:20.810Z,3.20
2018-02-19T09:02:21.372Z,3.40
2018-02-19T09:03:21.944Z,2.80
2018-02-19T09:04:22.548Z,3.60
2018-02-19T09:05:23.130Z,3.30
2018-02-19T09:06:23.724Z,3.40
2018-02-19T09:07:24.301Z,3.30
2018-02-19T09:08:24.883Z,3.00
2018-02-19T09:09:25.475Z,3.30
2018-02-19T09:10:26.038Z,3.00
2018-02-19T09:11:26.625Z,3.30
2018-02-19T09:12:27.202Z,3.30
2018-02-19T09:13:27.771Z,3.00
2018-02-19T09:14:28.372Z,2.90
2018-02-19T09:15:28.999Z,3.40
2018-02-19T09:16:29.584Z,3.40
2018-02-19T09:17:30.156Z,3.10
2018-02-19T09:18:30.729Z,3.20
2018-02-19T09:19:31.328Z,3.30
2018-02-19T09:20:31.920Z,3.40
2018-02-19T09:21:32.495Z,3.40
2018-02-19T09:22:33.074Z,3.30
2018-02-19T09:23:33.653Z,3.40
2018-02-19T09:24:34.284Z,3.30
2018-02-19T09:25:34.860Z,3.30
2018-02-19T09:26:35.432Z,3.10
2018-02-19T09:27:36.012Z,3.10
2018-02-19T09:28:36.582Z,3.40
2018-02-19T09:29:37.164Z,3.20
2018-02-19T09:30:37.736Z,3.00
2018-02-19T09:31:38.314Z,3.10
2018-02-19T09:32:38.886Z,3.00
2018-02-19T09:33:39.453Z,3.30
2018-02-19T09:34:40.025Z,2.80
2018-02-19T09:35:40.627Z,3.10
2018-02-19T09:36:41.199Z,2.90
2018-02-19T09:37:41.786Z,3.40
2018-02-19T09:38:42.374Z,3.00
2018-02-19T09:39:42.953Z,3.40
2018-02-19T09:40:43.521Z,3.50
2018-02-19T09:41:52.760Z,2.90
2018-02-19T09:42:53.337Z,3.20
2018-02-19T09:43:53.914Z,3.00
2018-02-19T09:44:54.480Z,3.30
2018-02-19T09:45:55.051Z,3.40
2018-02-19T09:46:55.627Z,3.20
2018-02-19T09:47:56.202Z,3.20
2018-02-19T09:48:57.027Z,3.30
2018-02-19T09:49:57.411Z,3.10
2018-02-19T09:50:57.984Z,3.10
2018-02-19T09:52:58.861Z,3.00
2018-02-19T09:53:20.116Z,3.10
2018-02-19T09:55:20.961Z,3.10
2018-02-19T09:57:22.216Z,3.10
2018-02-19T09:59:22.752Z,3.30
2018-02-19T10:00:23.340Z,3.90
2018-02-19T10:02:24.190Z,3.40
2018-02-19T10:03:24.760Z,3.00
2018-02-19T10:04:25.367Z,3.00
2018-02-19T10:05:25.937Z,2.90
2018-02-19T10:07:26.787Z,3.30
2018-02-19T10:08:27.369Z,3.30
2018-02-19T10:09:27.962Z,3.10
2018-02-19T10:10:28.567Z,3.10
2018-02-19T10:11:29.143Z,3.30
2018-02-19T10:12:29.707Z,2.80
2018-02-19T10:13:30.284Z,2.90
2018-02-19T10:15:31.144Z,3.20
2018-02-19T10:16:32.319Z,3.40
2018-02-19T10:17:32.918Z,3.10
2018-02-19T10:18:33.497Z,3.30
2018-02-19T10:20:34.379Z,3.20
2018-02-19T10:21:34.955Z,2.90
2018-02-19T10:22:35.535Z,2.90
2018-02-19T10:23:36.137Z,3.10
2018-02-19T10:24:36.733Z,3.00
2018-02-19T10:25:37.311Z,3.30
2018-02-19T10:26:37.894Z,3.20
2018-02-19T10:27:38.516Z,3.20
2018-02-19T10:28:39.107Z,3.50
2018-02-19T10:29:39.717Z,3.40
2018-02-19T10:30:40.371Z,3.10
2018-02-19T10:31:40.936Z,3.10
2018-02-19T10:32:41.533Z,3.20
2018-02-19T10:33:42.113Z,2.90
2018-02-19T10:35:42.959Z,3.10
2018-02-19T10:36:43.537Z,3.10
2018-02-19T10:37:44.109Z,3.80
2018-02-19T10:38:44.683Z,3.70
2018-02-19T10:39:45.365Z,3.40
2018-02-19T10:40:45.956Z,3.40
2018-02-19T10:41:46.527Z,3.10
2018-02-19T10:42:47.110Z,3.50
2018-02-19T10:43:47.684Z,3.50
2018-02-19T10:44:48.287Z,3.90
2018-02-19T10:46:49.180Z,3.50
2018-02-19T10:47:49.749Z,3.90
2018-02-19T10:48:50.322Z,3.30
2018-02-19T10:49:50.892Z,3.70
2018-02-19T10:50:51.470Z,3.60
2018-02-19T10:51:52.037Z,3.60
2018-02-19T10:52:52.609Z,3.60
2018-02-19T10:53:53.190Z,3.60
2018-02-19T10:54:53.760Z,3.60
2018-02-19T10:55:54.336Z,3.40
2018-02-19T10:56:54.907Z,3.80
2018-02-19T10:57:55.480Z,3.50
2018-02-19T10:58:56.054Z,3.30
2018-02-19T10:59:56.632Z,3.40
2018-02-19T11:00:57.213Z,3.60
2018-02-19T11:01:57.836Z,3.40
2018-02-19T11:02:58.417Z,3.70
2018-02-19T11:03:59.007Z,3.50
2018-02-19T11:04:59.586Z,3.40
2018-02-19T11:06:00.162Z,4.10
2018-02-19T11:07:00.723Z,3.20
2018-02-19T11:08:01.301Z,3.40
2018-02-19T11:09:01.903Z,3.50
2018-02-19T11:10:02.512Z,3.60
2018-02-19T11:11:03.320Z,3.80
2018-02-19T11:12:03.908Z,3.60
2018-02-19T11:13:04.492Z,3.40
2018-02-19T11:14:05.070Z,3.30
2018-02-19T11:15:05.639Z,3.10
2018-02-19T11:16:06.223Z,3.30
2018-02-19T11:17:06.786Z,3.40
2018-02-19T11:18:07.364Z,3.60
2018-02-19T11:19:07.944Z,3.40
2018-02-19T11:20:08.521Z,3.40
2018-02-19T11:21:09.091Z,3.30
2018-02-19T11:22:09.711Z,3.00
2018-02-19T11:23:10.294Z,3.70
2018-02-19T11:24:10.903Z,3.20
2018-02-19T11:25:11.531Z,3.60
2018-02-19T11:26:12.099Z,3.20
2018-02-19T11:27:12.671Z,3.40
2018-02-19T11:28:13.251Z,3.80
2018-02-19T11:29:13.824Z,3.80
2018-02-19T11:30:14.540Z,3.20
2018-02-19T11:31:15.125Z,3.40
2018-02-19T11:32:15.697Z,3.50
2018-02-19T11:33:16.276Z,3.70
2018-02-19T11:34:16.842Z,3.50
2018-02-19T11:35:17.409Z,3.60
2018-02-19T11:36:17.989Z,3.30
2018-02-19T11:37:18.559Z,3.30
2018-02-19T11:38:19.141Z,3.40
2018-02-19T11:39:19.716Z,3.30
2018-02-19T11:40:20.324Z,3.30
2018-02-19T11:41:20.896Z,3.60
2018-02-19T11:42:21.494Z,3.60
2018-02-19T11:43:22.085Z,3.30
2018-02-19T11:44:22.662Z,3.70
2018-02-19T11:45:23.241Z,3.20
2018-02-19T11:46:23.807Z,3.20
2018-02-19T11:47:24.434Z,3.30
2018-02-19T11:48:25.014Z,3.50
2018-02-19T11:49:25.576Z,3.20
2018-02-19T11:50:26.173Z,3.40
2018-02-19T11:51:26.746Z,3.60
2018-02-19T11:52:27.325Z,3.50
2018-02-19T11:53:27.916Z,3.30
2018-02-19T11:54:28.490Z,3.30
2018-02-19T11:55:29.074Z,3.70
2018-02-19T11:56:29.657Z,3.50
2018-02-19T11:57:30.239Z,3.60
2018-02-19T11:58:30.815Z,3.00
2018-02-19T11:59:31.410Z,3.40
2018-02-19T12:00:32.000Z,3.20
2018-02-19T12:01:32.579Z,3.40
2018-02-19T12:02:33.157Z,3.70
2018-02-19T12:03:33.734Z,3.10
2018-02-19T12:04:34.303Z,3.30
2018-02-19T12:05:34.881Z,3.30
2018-02-19T12:06:35.466Z,3.50
2018-02-19T12:07:36.039Z,3.40
2018-02-19T12:08:36.608Z,3.20
2018-02-19T12:09:37.184Z,3.20
2018-02-19T12:10:37.759Z,3.60
2018-02-19T12:11:38.436Z,3.40
2018-02-19T12:12:39.016Z,3.40
2018-02-19T12:13:39.664Z,3.40
2018-02-19T12:14:40.268Z,3.60
2018-02-19T12:15:40.913Z,3.30
2018-02-19T12:16:41.483Z,3.40
2018-02-19T12:17:42.064Z,3.10
2018-02-19T12:18:42.658Z,3.40
2018-02-19T12:19:43.230Z,3.20
2018-02-19T12:20:43.837Z,3.50
2018-02-19T12:21:44.470Z,3.10
2018-02-19T12:22:45.052Z,3.20
2018-02-19T12:23:45.627Z,3.20
2018-02-19T12:24:46.200Z,3.20
2018-02-19T12:25:46.757Z,3.30
2018-02-19T12:26:47.322Z,3.20
2018-02-19T12:27:47.968Z,3.20
2018-02-19T12:28:48.530Z,2.90
2018-02-19T12:29:49.093Z,3.40
2018-02-19T12:30:49.678Z,3.20
2018-02-19T12:31:50.262Z,3.30
2018-02-19T12:32:50.850Z,3.20
2018-02-19T12:33:51.415Z,3.30
2018-02-19T12:34:51.985Z,2.90
2018-02-19T12:35:52.567Z,3.20
2018-02-19T12:36:53.135Z,3.10
2018-02-19T12:37:53.733Z,3.20
2018-02-19T12:38:54.306Z,3.00
2018-02-19T12:39:54.871Z,2.90
2018-02-19T12:40:55.435Z,3.20
2018-02-19T12:41:56.021Z,2.90
2018-02-19T12:42:56.627Z,3.00
2018-02-19T12:43:57.207Z,3.00
2018-02-19T12:44:57.791Z,2.90
2018-02-19T12:45:58.395Z,3.20
2018-02-19T12:46:58.965Z,3.30
2018-02-19T12:47:59.558Z,2.90
2018-02-19T12:49:00.126Z,3.40
2018-02-19T12:50:00.711Z,3.60
2018-02-19T12:53:01.855Z,3.40
2018-02-19T12:54:02.457Z,3.30
2018-02-19T12:55:03.034Z,3.40
2018-02-19T12:56:03.606Z,3.50
2018-02-19T12:57:04.183Z,3.50
2018-02-19T12:58:04.784Z,3.30
2018-02-19T12:59:05.374Z,3.40
2018-02-19T13:00:06.011Z,3.60
2018-02-19T13:01:06.643Z,3.70
2018-02-19T13:02:07.283Z,3.50
2018-02-19T13:03:07.867Z,3.40
2018-02-19T13:04:08.493Z,3.20
2018-02-19T13:05:09.085Z,3.40
2018-02-19T13:06:09.660Z,3.40
2018-02-19T13:07:10.242Z,3.50
2018-02-19T13:08:10.813Z,3.20
2018-02-19T13:09:11.391Z,3.30
2018-02-19T13:10:11.952Z,3.30
2018-02-19T13:11:12.512Z,3.30
2018-02-19T13:12:13.088Z,3.10
2018-02-19T13:13:13.670Z,3.30
2018-02-19T13:14:14.250Z,3.40
2018-02-19T13:15:14.832Z,3.60
2018-02-19T13:16:15.438Z,3.40
2018-02-19T13:17:16.011Z,3.30
2018-02-19T13:18:16.584Z,3.20
2018-02-19T13:19:17.161Z,3.60
2018-02-19T13:20:17.737Z,3.70
2018-02-19T13:21:18.308Z,3.30
2018-02-19T13:22:18.886Z,3.30
2018-02-19T13:23:19.532Z,3.60
2018-02-19T13:24:20.104Z,3.30
2018-02-19T13:25:20.684Z,3.60
2018-02-19T13:26:21.248Z,3.60
2018-02-19T13:27:21.847Z,3.40
2018-02-19T13:28:22.427Z,3.50
2018-02-19T13:29:23.001Z,3.50
2018-02-19T13:30:23.586Z,3.40
2018-02-19T13:31:24.170Z,3.40
2018-02-19T13:32:24.738Z,3.20
2018-02-19T13:33:25.312Z,3.40
2018-02-19T13:34:25.882Z,3.50
2018-02-19T13:35:26.461Z,3.50
2018-02-19T13:36:27.035Z,3.50
2018-02-19T13:37:27.601Z,3.70
2018-02-19T13:38:28.202Z,3.50
2018-02-19T13:39:28.774Z,3.50
2018-02-19T13:40:29.347Z,3.70
2018-02-19T13:41:29.919Z,3.80
2018-02-19T13:42:30.495Z,3.70
2018-02-19T13:43:31.082Z,3.40
2018-02-19T13:44:31.672Z,3.30
2018-02-19T13:45:32.263Z,3.50
2018-02-19T13:46:32.852Z,3.40
2018-02-19T13:47:33.469Z,3.50
2018-02-19T13:48:34.071Z,3.50
2018-02-19T13:49:34.644Z,3.60
2018-02-19T13:50:35.210Z,3.40
2018-02-19T13:51:35.816Z,3.80
2018-02-19T13:52:36.404Z,3.70
2018-02-19T13:53:36.987Z,3.50
2018-02-19T13:54:37.573Z,3.90
2018-02-19T13:55:38.231Z,3.70
2018-02-19T13:56:38.856Z,3.80
2018-02-19T13:57:39.451Z,3.60
2018-02-19T13:58:40.051Z,3.30
2018-02-19T13:59:40.627Z,3.90
2018-02-19T14:00:41.275Z,3.90
2018-02-19T14:01:41.856Z,3.50
2018-02-19T14:02:42.421Z,3.80
2018-02-19T14:03:43.004Z,3.70
2018-02-19T14:04:43.586Z,3.70
2018-02-19T14:05:44.172Z,3.70
2018-02-19T14:06:44.743Z,4.30
2018-02-19T14:07:45.315Z,4.10
2018-02-19T14:08:45.888Z,3.60
2018-02-19T14:09:46.448Z,3.80
2018-02-19T14:10:47.016Z,3.70
2018-02-19T14:11:47.593Z,3.70
2018-02-19T14:12:48.172Z,3.60
2018-02-19T14:13:48.772Z,3.80
2018-02-19T14:14:49.346Z,3.70
2018-02-19T14:15:49.929Z,3.60
2018-02-19T14:16:50.503Z,3.80
2018-02-19T14:17:51.069Z,3.80
2018-02-19T14:18:51.667Z,3.90
2018-02-19T14:19:52.243Z,4.00
2018-02-19T14:20:52.822Z,3.80
2018-02-19T14:21:53.390Z,3.60
2018-02-19T14:22:53.972Z,3.70
2018-02-19T14:23:54.559Z,3.50
2018-02-19T14:24:55.142Z,3.80
2018-02-19T14:25:55.724Z,3.70
2018-02-19T14:26:56.296Z,4.00
2018-02-19T14:27:56.879Z,3.90
2018-02-19T14:28:57.477Z,4.10
2018-02-19T14:29:58.052Z,3.80
2018-02-19T14:30:58.631Z,3.90
2018-02-19T14:31:59.205Z,4.20
2018-02-19T14:32:59.775Z,3.70
2018-02-19T14:34:00.364Z,3.60
2018-02-19T14:35:00.933Z,3.70
2018-02-19T14:36:01.500Z,4.00
2018-02-19T14:37:02.079Z,3.80
2018-02-19T14:38:02.650Z,3.70
2018-02-19T14:39:03.248Z,3.90
2018-02-19T14:40:03.834Z,3.80
2018-02-19T14:41:04.396Z,4.00
2018-02-19T14:42:04.988Z,3.90
2018-02-19T14:43:05.569Z,3.80
2018-02-19T14:44:06.141Z,3.90
2018-02-19T14:45:06.705Z,3.60
2018-02-19T14:46:07.292Z,4.00
2018-02-19T14:47:07.913Z,3.90
2018-02-19T14:48:08.492Z,3.90
2018-02-19T14:49:09.079Z,3.60
2018-02-19T14:50:09.651Z,4.20
2018-02-19T14:52:37.261Z,4.10
2018-02-19T14:53:37.835Z,3.90
2018-02-19T14:54:38.488Z,4.10
2018-02-19T14:55:39.064Z,3.80
2018-02-19T14:56:39.652Z,4.10
2018-02-19T14:57:40.236Z,3.90
2018-02-19T14:59:41.086Z,4.10
2018-02-19T15:00:41.657Z,4.30
2018-02-19T15:01:42.252Z,4.00
2018-02-19T15:02:42.829Z,4.20
2018-02-19T15:03:43.400Z,4.30
2018-02-19T15:04:43.990Z,4.20
2018-02-19T15:05:44.586Z,4.30
2018-02-19T15:06:45.179Z,4.60
2018-02-19T15:07:45.756Z,4.00
2018-02-19T15:08:46.329Z,4.00
2018-02-19T15:09:46.908Z,4.50
2018-02-19T15:10:47.508Z,4.20
2018-02-19T15:11:48.120Z,3.80
2018-02-19T15:12:48.699Z,4.30
2018-02-19T15:13:49.276Z,4.30
2018-02-19T15:14:49.859Z,3.90
2018-02-19T15:16:50.720Z,4.10
2018-02-19T15:17:51.291Z,4.10
2018-02-19T15:18:51.874Z,4.10
2018-02-19T15:20:52.777Z,4.10
2018-02-19T15:22:53.662Z,4.00
2018-02-19T15:23:54.236Z,3.90
2018-02-19T15:25:55.116Z,3.60
2018-02-19T15:26:55.734Z,3.70
2018-02-19T15:27:56.308Z,4.00
2018-02-19T15:28:56.876Z,4.00
2018-02-19T15:29:57.444Z,3.80
2018-02-19T15:30:58.026Z,3.90
2018-02-19T15:31:58.590Z,4.10
2018-02-19T15:33:59.426Z,3.70
2018-02-19T15:35:00.003Z,3.80
2018-02-19T15:36:00.590Z,4.00
2018-02-19T15:37:01.183Z,4.00
2018-02-19T15:39:02.036Z,3.50
2018-02-19T15:40:02.617Z,4.00
2018-02-19T15:41:03.197Z,3.80
2018-02-19T15:42:03.781Z,3.90
2018-02-19T15:43:04.353Z,4.10
2018-02-19T15:44:04.948Z,4.00
2018-02-19T15:45:05.538Z,3.80
2018-02-19T15:46:06.110Z,4.20
2018-02-19T15:47:06.692Z,3.80
2018-02-19T15:48:07.251Z,4.30
2018-02-19T15:49:07.816Z,4.30
2018-02-19T15:50:08.397Z,4.00
2018-02-19T15:51:08.981Z,3.90
2018-02-19T15:52:09.541Z,4.20
2018-02-19T15:53:10.119Z,3.90
2018-02-19T15:54:10.689Z,3.80
2018-02-19T15:55:11.265Z,4.40